Time;durP1;ratioP1;P1;durP2;ratioP2;P2;SDS_P1;SDS_P2;PMS_P1;PMS_P2;Temp;Humidity;BMP_temperature;BMP_pressure;BME280_temperature;BME280_humidity;BME280_pressure;Samples;Min_cycle;Max_cycle;Signal;HPM_P1;HPM_P2
2021/06/26 00:01:30;;;;;;;16.37;10.35;;;;;;;21.67;83.57;100751.75;1740467;82;21232;-69
2021/06/26 00:03:59;;;;;;;17.55;11.30;;;;;;;21.68;83.57;100751.25;1740028;82;21575;-69
2021/06/26 00:06:28;;;;;;;18.85;10.88;;;;;;;21.66;83.60;100751.38;1788253;80;21174;-69
2021/06/26 00:08:57;;;;;;;20.15;11.85;;;;;;;21.65;83.68;100748.83;1788360;80;21080;-69
2021/06/26 00:11:25;;;;;;;16.82;10.95;;;;;;;21.64;83.77;100747.14;1788246;80;21190;-68
2021/06/26 00:13:54;;;;;;;21.30;11.25;;;;;;;21.65;83.82;100751.50;1788140;80;21213;-69
2021/06/26 00:16:23;;;;;;;19.27;10.53;;;;;;;21.66;83.76;100747.86;1788340;80;21179;-69
2021/06/26 00:18:52;;;;;;;21.33;11.25;;;;;;;21.67;83.74;100745.52;1788323;80;21088;-69
2021/06/26 00:21:20;;;;;;;19.65;10.68;;;;;;;21.67;83.84;100733.46;1788397;80;21064;-69
2021/06/26 00:23:49;;;;;;;22.07;11.08;;;;;;;21.68;83.92;100735.17;1788278;80;21044;-68
2021/06/26 00:26:19;;;;;;;19.48;11.10;;;;;;;21.67;84.02;100730.78;1788135;80;21145;-69
2021/06/26 00:28:48;;;;;;;20.32;12.28;;;;;;;21.66;84.26;100722.41;1788264;80;21558;-68
2021/06/26 00:31:18;;;;;;;26.65;11.12;;;;;;;21.67;84.34;100721.41;1788287;80;21142;-67
2021/06/26 00:33:47;;;;;;;23.52;12.75;;;;;;;21.67;84.34;100713.36;1788347;80;21045;-67
2021/06/26 00:36:16;;;;;;;25.70;12.75;;;;;;;21.67;84.35;100710.69;1788221;80;21158;-68
2021/06/26 00:38:45;;;;;;;31.50;12.40;;;;;;;21.65;84.41;100720.19;1788120;80;21175;-68
2021/06/26 00:41:14;;;;;;;24.05;12.15;;;;;;;21.66;84.50;100725.92;1788269;80;21036;-67
2021/06/26 00:43:43;;;;;;;23.10;11.35;;;;;;;21.64;84.58;100731.91;1788357;79;21199;-67
2021/06/26 00:46:11;;;;;;;23.87;12.40;;;;;;;21.66;84.58;100739.82;1788364;80;21147;-67
2021/06/26 00:48:40;;;;;;;24.63;11.45;;;;;;;21.65;84.55;100737.61;1788264;80;21069;-67
2021/06/26 00:51:09;;;;;;;26.62;12.33;;;;;;;21.65;84.54;100734.09;1788224;80;21142;-68
2021/06/26 00:53:38;;;;;;;22.42;11.90;;;;;;;21.64;84.54;100740.45;1788154;80;21068;-68
2021/06/26 00:56:08;;;;;;;23.73;10.80;;;;;;;21.62;84.51;100739.23;1788343;80;21064;-67
2021/06/26 00:58:37;;;;;;;24.90;11.53;;;;;;;21.62;84.54;100733.03;1788438;80;21142;-67
2021/06/26 01:01:06;;;;;;;30.08;12.03;;;;;;;21.59;84.61;100734.97;1788319;80;21096;-67
2021/06/26 01:03:34;;;;;;;24.55;11.80;;;;;;;21.59;84.68;100734.12;1788348;80;21217;-67
2021/06/26 01:06:03;;;;;;;21.85;12.37;;;;;;;21.57;84.78;100742.28;1788323;80;21179;-67
2021/06/26 01:08:34;;;;;;;25.72;11.48;;;;;;;21.54;84.77;100734.53;1788453;80;21064;-67
2021/06/26 01:11:03;;;;;;;26.45;12.35;;;;;;;21.52;84.84;100724.91;1788418;80;21064;-68
2021/06/26 01:13:32;;;;;;;25.25;12.58;;;;;;;21.49;84.91;100722.02;1788411;80;21068;-67
2021/06/26 01:16:01;;;;;;;23.83;12.75;;;;;;;21.48;84.94;100716.78;1788369;80;21068;-66
2021/06/26 01:18:30;;;;;;;21.70;11.57;;;;;;;21.47;84.97;100713.27;1788223;80;21139;-67
2021/06/26 01:20:59;;;;;;;24.52;12.05;;;;;;;21.48;85.01;100714.95;1788309;80;21161;-67
2021/06/26 01:23:27;;;;;;;30.57;13.40;;;;;;;21.46;85.08;100702.17;1788356;80;21044;-67
2021/06/26 01:25:56;;;;;;;24.95;12.00;;;;;;;21.44;85.17;100704.11;1788396;80;21084;-67
2021/06/26 01:28:25;;;;;;;25.55;12.43;;;;;;;21.44;85.24;100708.63;1788568;80;21107;-67
2021/06/26 01:30:54;;;;;;;27.73;13.08;;;;;;;21.42;85.28;100708.75;1788251;80;21158;-68
2021/06/26 01:33:23;;;;;;;21.77;12.43;;;;;;;21.42;85.34;100710.09;1788383;80;21071;-67
2021/06/26 01:35:51;;;;;;;22.62;12.53;;;;;;;21.39;85.49;100719.72;1788403;80;21064;-67
2021/06/26 01:38:20;;;;;;;26.77;12.60;;;;;;;21.37;85.55;100729.72;1788381;80;21092;-66
2021/06/26 01:40:49;;;;;;;28.35;12.55;;;;;;;21.38;85.57;100724.73;1788306;80;21138;-67
2021/06/26 01:43:18;;;;;;;20.57;12.35;;;;;;;21.37;85.54;100720.34;1793438;79;21111;-67
2021/06/26 01:45:46;;;;;;;26.10;12.43;;;;;;;21.39;85.50;100726.41;1802961;79;21228;-67
2021/06/26 01:48:15;;;;;;;25.08;12.05;;;;;;;21.40;85.48;100720.93;1778111;80;21164;-66
2021/06/26 01:50:44;;;;;;;28.10;12.95;;;;;;;21.42;85.45;100714.61;1778209;81;21101;-66
2021/06/26 01:53:16;;;;;;;30.20;12.95;;;;;;;21.42;85.42;100715.45;1778173;81;21108;-67
2021/06/26 01:55:44;;;;;;;29.87;13.83;;;;;;;21.40;85.48;100708.88;1777590;80;21512;-67
2021/06/26 01:58:13;;;;;;;24.00;13.65;;;;;;;21.41;85.61;100705.70;1781119;80;21043;-66
2021/06/26 02:00:42;;;;;;;30.72;13.55;;;;;;;21.39;85.72;100703.65;1794133;80;21158;-67
2021/06/26 02:03:10;;;;;;;23.85;11.73;;;;;;;21.38;85.79;100718.03;1794252;80;21071;-67
2021/06/26 02:05:39;;;;;;;28.30;13.32;;;;;;;21.39;85.86;100733.11;1794140;80;21076;-67
2021/06/26 02:08:08;;;;;;;24.70;11.60;;;;;;;21.39;85.86;100735.79;1794110;80;21108;-66
2021/06/26 02:10:37;;;;;;;23.92;11.20;;;;;;;21.41;85.81;100740.52;1794162;80;21163;-67
2021/06/26 02:13:06;;;;;;;26.73;11.45;;;;;;;21.43;85.71;100737.22;1794201;80;21111;-66
2021/06/26 02:15:35;;;;;;;22.62;11.43;;;;;;;21.44;85.62;100732.23;1794133;80;21095;-67
2021/06/26 02:18:04;;;;;;;33.67;12.78;;;;;;;21.45;85.59;100738.00;1794381;80;21112;-66
2021/06/26 02:20:33;;;;;;;27.20;12.45;;;;;;;21.44;85.66;100726.88;1794261;80;21079;-67
2021/06/26 02:23:01;;;;;;;26.40;12.82;;;;;;;21.45;85.86;100716.57;1794087;80;21150;-67
2021/06/26 02:25:30;;;;;;;24.30;12.82;;;;;;;21.46;85.89;100708.88;1794281;80;21071;-66
2021/06/26 02:27:59;;;;;;;26.82;14.07;;;;;;;21.48;85.91;100714.95;1794258;80;21075;-67
2021/06/26 02:30:27;;;;;;;30.25;13.03;;;;;;;21.50;85.84;100708.97;1794153;80;21072;-67
2021/06/26 02:32:56;;;;;;;28.15;14.75;;;;;;;21.54;85.78;100709.55;1794204;80;21205;-66
2021/06/26 02:35:25;;;;;;;30.82;14.35;;;;;;;21.59;85.73;100699.30;1794107;80;21151;-67
2021/06/26 02:37:54;;;;;;;33.73;14.65;;;;;;;21.65;85.69;100696.58;1794198;80;21044;-66
2021/06/26 02:40:23;;;;;;;32.25;13.78;;;;;;;21.71;85.63;100696.06;1794177;80;21122;-67
2021/06/26 02:42:52;;;;;;;35.90;15.20;;;;;;;21.78;85.58;100693.18;1794178;80;21092;-66
2021/06/26 02:45:20;;;;;;;32.05;15.55;;;;;;;21.84;85.52;100684.63;1782099;80;21108;-66
2021/06/26 02:47:49;;;;;;;32.80;15.98;;;;;;;21.89;85.46;100674.36;1780064;81;21141;-66
2021/06/26 02:50:18;;;;;;;42.15;18.20;;;;;;;21.97;85.43;100677.20;1780014;81;21139;-67
2021/06/26 02:52:46;;;;;;;35.45;17.07;;;;;;;22.05;85.40;100683.72;1780066;81;21615;-66
2021/06/26 02:55:15;;;;;;;34.20;14.60;;;;;;;22.07;85.46;100689.79;1780062;81;21145;-66
2021/06/26 02:57:44;;;;;;;25.97;13.85;;;;;;;22.08;85.24;100704.41;1780113;81;21270;-66
2021/06/26 03:00:14;;;;;;;30.57;15.90;;;;;;;22.06;84.93;100706.84;1779981;80;21133;-66
2021/06/26 03:02:42;;;;;;;29.02;14.73;;;;;;;22.05;84.76;100700.64;1780073;81;21105;-67
2021/06/26 03:05:12;;;;;;;24.90;13.43;;;;;;;22.08;84.73;100703.06;1780193;81;21125;-66
2021/06/26 03:07:42;;;;;;;24.77;12.47;;;;;;;22.13;84.62;100711.55;1780037;81;21151;-66
2021/06/26 03:10:11;;;;;;;20.80;11.08;;;;;;;22.16;84.48;100721.15;1779104;81;21045;-66
2021/06/26 03:12:40;;;;;;;22.35;12.15;;;;;;;22.18;84.26;100719.18;1780128;81;21101;-67
2021/06/26 03:15:10;;;;;;;24.67;11.12;;;;;;;22.18;84.11;100718.68;1779942;81;21074;-66
2021/06/26 03:17:38;;;;;;;23.47;12.88;;;;;;;22.17;84.04;100717.00;1780102;80;21101;-66
2021/06/26 03:20:09;;;;;;;26.02;11.48;;;;;;;22.17;83.98;100721.02;1780008;81;21104;-66
2021/06/26 03:22:39;;;;;;;21.95;11.35;;;;;;;22.19;83.93;100723.57;1780085;81;21110;-66
2021/06/26 03:25:09;;;;;;;21.97;11.08;;;;;;;22.22;83.89;100729.98;1780161;81;21125;-66
2021/06/26 03:27:39;;;;;;;22.02;10.88;;;;;;;22.27;83.77;100731.80;1780024;81;21184;-65
2021/06/26 03:30:08;;;;;;;22.15;11.93;;;;;;;22.31;83.66;100729.20;1780008;81;21121;-68
2021/06/26 03:32:37;;;;;;;16.57;10.80;;;;;;;22.40;83.49;100726.70;1780158;81;21187;-65
2021/06/26 03:35:07;;;;;;;13.98;7.78;;;;;;;22.42;83.20;100716.68;1780079;81;21124;-66
2021/06/26 03:37:36;;;;;;;15.30;8.05;;;;;;;22.45;82.69;100714.57;1780229;81;21100;-66
2021/06/26 03:40:05;;;;;;;11.48;6.33;;;;;;;22.47;82.20;100720.64;1779972;81;21096;-67
2021/06/26 03:42:34;;;;;;;9.43;5.00;;;;;;;22.48;81.50;100715.64;1780120;81;21105;-66
2021/06/26 03:45:03;;;;;;;10.65;5.00;;;;;;;22.48;80.83;100714.77;1790134;79;21107;-66
2021/06/26 03:47:32;;;;;;;12.05;4.58;;;;;;;22.47;80.11;100707.73;1802501;79;21535;-65
2021/06/26 03:50:01;;;;;;;11.65;5.33;;;;;;;22.47;79.44;100702.36;1802531;79;21153;-66
2021/06/26 03:52:30;;;;;;;22.48;6.35;;;;;;;22.52;79.34;100697.41;1783002;80;21622;-67
2021/06/26 03:54:58;;;;;;;12.47;5.42;;;;;;;22.55;79.17;100694.45;1783021;80;21200;-67
2021/06/26 03:57:27;;;;;;;13.80;5.72;;;;;;;22.57;79.04;100697.84;1783102;80;21219;-65
2021/06/26 03:59:56;;;;;;;8.70;5.28;;;;;;;22.60;78.96;100692.72;1783047;80;21185;-65
2021/06/26 04:02:25;;;;;;;11.97;6.47;;;;;;;22.59;78.84;100682.95;1783095;80;21140;-65
2021/06/26 04:04:54;;;;;;;12.10;6.03;;;;;;;22.56;78.75;100678.73;1783073;80;21171;-64
2021/06/26 04:07:22;;;;;;;12.90;5.85;;;;;;;22.55;78.76;100679.70;1782977;80;21121;-65
2021/06/26 04:09:51;;;;;;;10.45;5.72;;;;;;;22.54;78.76;100682.89;1783150;80;21109;-65
2021/06/26 04:12:20;;;;;;;12.85;7.00;;;;;;;22.53;78.66;100686.55;1783066;80;21105;-65
2021/06/26 04:14:49;;;;;;;17.75;7.37;;;;;;;22.53;78.72;100683.86;1783057;80;21556;-66
2021/06/26 04:17:17;;;;;;;15.48;8.45;;;;;;;22.53;79.03;100674.97;1783049;80;21097;-65
2021/06/26 04:19:46;;;;;;;22.42;9.23;;;;;;;22.54;79.41;100660.58;1782910;80;21184;-65
2021/06/26 04:22:15;;;;;;;17.27;9.48;;;;;;;22.54;79.74;100656.55;1783139;80;21226;-65
2021/06/26 04:24:44;;;;;;;25.88;9.43;;;;;;;22.53;80.04;100658.88;1783071;80;21200;-65
2021/06/26 04:27:13;;;;;;;14.43;8.35;;;;;;;22.52;80.32;100659.84;1783028;80;21176;-65
2021/06/26 04:29:42;;;;;;;15.23;8.55;;;;;;;22.50;80.44;100653.77;1783189;80;21160;-65
2021/06/26 04:32:11;;;;;;;17.00;8.90;;;;;;;22.50;80.44;100653.77;1783091;80;21069;-65
2021/06/26 04:34:40;;;;;;;15.23;9.35;;;;;;;22.46;80.47;100649.68;1783128;80;21595;-65
2021/06/26 04:37:09;;;;;;;21.12;10.50;;;;;;;22.43;80.59;100643.23;1786431;80;21058;-65
2021/06/26 04:39:37;;;;;;;14.05;8.80;;;;;;;22.42;80.69;100640.22;1786462;80;21170;-65
2021/06/26 04:42:07;;;;;;;17.98;9.63;;;;;;;22.40;80.72;100640.86;1786563;80;21580;-65
2021/06/26 04:44:36;;;;;;;19.42;10.13;;;;;;;22.39;80.73;100644.52;1786455;80;21196;-65
2021/06/26 04:47:05;;;;;;;14.10;8.88;;;;;;;22.39;80.87;100651.22;1777534;79;21138;-65
2021/06/26 04:49:36;;;;;;;17.12;9.95;;;;;;;22.36;81.11;100658.56;1777370;80;21119;-65
2021/06/26 04:52:05;;;;;;;19.42;10.53;;;;;;;22.33;81.51;100664.19;1777450;81;21115;-65
2021/06/26 04:54:34;;;;;;;17.77;10.90;;;;;;;22.32;81.69;100669.72;1747722;82;21580;-66
2021/06/26 04:57:03;;;;;;;19.73;10.65;;;;;;;22.30;81.88;100668.52;1777330;81;21217;-66
2021/06/26 04:59:32;;;;;;;17.42;10.78;;;;;;;22.31;81.96;100674.72;1777294;81;21220;-66
2021/06/26 05:02:01;;;;;;;23.00;11.45;;;;;;;22.32;82.13;100673.24;1777320;81;21289;-66
2021/06/26 05:04:30;;;;;;;17.52;9.50;;;;;;;22.33;82.33;100680.28;1777441;81;21529;-66
2021/06/26 05:06:59;;;;;;;20.05;10.72;;;;;;;22.33;82.46;100678.11;1777377;81;21182;-66
2021/06/26 05:09:27;;;;;;;20.90;11.03;;;;;;;22.34;82.55;100687.86;1777365;81;21083;-65
2021/06/26 05:11:56;;;;;;;25.05;11.25;;;;;;;22.34;82.67;100695.41;1777263;81;21201;-65
2021/06/26 05:14:25;;;;;;;18.85;10.75;;;;;;;22.35;82.75;100694.91;1777387;81;21542;-64
2021/06/26 05:16:54;;;;;;;17.52;10.43;;;;;;;22.39;82.75;100703.53;1777368;81;21111;-65
2021/06/26 05:19:23;;;;;;;22.52;10.65;;;;;;;22.42;82.75;100707.29;1777404;81;21195;-65
2021/06/26 05:21:52;;;;;;;19.87;10.72;;;;;;;22.47;82.70;100699.68;1777461;81;21147;-64
2021/06/26 05:24:20;;;;;;;18.62;11.10;;;;;;;22.53;82.63;100701.80;1777296;81;21079;-65
2021/06/26 05:26:49;;;;;;;21.27;11.85;;;;;;;22.60;82.56;100702.95;1777409;81;21112;-65
2021/06/26 05:29:18;;;;;;;24.50;12.05;;;;;;;22.68;82.53;100711.14;1777328;81;21075;-65
2021/06/26 05:31:47;;;;;;;27.17;11.88;;;;;;;22.74;82.52;100730.73;1777351;81;21174;-65
2021/06/26 05:34:16;;;;;;;19.40;10.15;;;;;;;22.80;82.44;100735.19;1777574;81;21561;-66
2021/06/26 05:36:45;;;;;;;19.77;11.68;;;;;;;22.84;82.35;100732.58;1777277;81;21178;-65
2021/06/26 05:39:13;;;;;;;22.42;11.33;;;;;;;22.87;82.26;100733.62;1777326;81;21216;-65
2021/06/26 05:41:42;;;;;;;21.97;11.78;;;;;;;22.92;82.16;100735.40;1777290;81;21146;-64
2021/06/26 05:44:11;;;;;;;21.42;11.05;;;;;;;22.99;82.07;100742.41;1777348;81;21135;-65
2021/06/26 05:46:40;;;;;;;19.60;11.35;;;;;;;23.06;81.96;100739.55;1780112;80;21183;-64
2021/06/26 05:49:09;;;;;;;28.87;14.15;;;;;;;23.15;81.90;100734.67;1782873;80;21159;-64
2021/06/26 05:51:38;;;;;;;21.55;11.65;;;;;;;23.26;81.85;100739.05;1782894;80;21171;-65
2021/06/26 05:54:06;;;;;;;22.20;9.88;;;;;;;23.34;81.65;100746.39;1782936;80;21045;-64
2021/06/26 05:56:35;;;;;;;20.77;11.28;;;;;;;23.36;81.34;100760.02;1782859;80;21089;-64
2021/06/26 05:59:04;;;;;;;25.35;11.28;;;;;;;23.38;81.14;100759.38;1782900;80;21147;-65
2021/06/26 06:01:32;;;;;;;20.90;11.73;;;;;;;23.38;81.01;100760.73;1782813;80;21167;-65
2021/06/26 06:04:01;;;;;;;24.60;12.63;;;;;;;23.36;81.08;100761.37;1782754;80;21143;-65
2021/06/26 06:06:30;;;;;;;27.27;11.80;;;;;;;23.29;81.22;100754.39;1782836;80;21118;-65
2021/06/26 06:08:59;;;;;;;23.15;10.55;;;;;;;23.25;81.34;100748.09;1782802;80;21206;-65
2021/06/26 06:11:27;;;;;;;26.55;12.53;;;;;;;23.24;81.30;100747.25;1782770;80;21131;-65
2021/06/26 06:13:56;;;;;;;25.02;12.80;;;;;;;23.25;81.29;100741.38;1782815;80;21112;-64
2021/06/26 06:16:25;;;;;;;29.35;15.43;;;;;;;23.26;81.26;100740.39;1782598;80;21165;-70
2021/06/26 06:18:54;;;;;;;23.32;12.63;;;;;;;23.27;81.21;100754.16;1782803;80;21201;-65
2021/06/26 07:09:13;;;;;;;24.63;12.93;;;;;;;22.92;84.01;100739.42;1959052;72;22061;-63
2021/06/26 07:11:42;;;;;;;24.77;13.20;;;;;;;22.85;83.76;100751.70;1918292;75;21055;-62
2021/06/26 07:14:10;;;;;;;29.77;16.95;;;;;;;22.81;83.56;100762.37;1918127;73;21149;-63
2021/06/26 07:16:39;;;;;;;25.97;15.55;;;;;;;22.75;83.49;100774.02;1918325;74;21040;-64
2021/06/26 07:19:08;;;;;;;97.75;27.75;;;;;;;22.73;83.45;100772.47;1918364;74;21020;-64
2021/06/26 07:21:37;;;;;;;54.67;19.00;;;;;;;22.69;83.42;100754.95;1918311;75;21121;-64
2021/06/26 07:24:07;;;;;;;35.63;16.35;;;;;;;22.66;83.46;100749.34;1918258;75;21056;-63
2021/06/26 07:26:36;;;;;;;27.32;13.88;;;;;;;22.63;83.44;100725.95;1918178;75;21032;-65
2021/06/26 07:29:05;;;;;;;26.48;14.18;;;;;;;22.60;83.51;100720.89;1918248;74;21075;-64
2021/06/26 07:31:34;;;;;;;24.27;12.58;;;;;;;22.55;83.59;100718.11;1918263;74;21048;-64
2021/06/26 07:34:03;;;;;;;21.02;11.93;;;;;;;22.52;83.56;100710.82;1918253;75;21055;-64
2021/06/26 07:36:32;;;;;;;13.03;8.75;;;;;;;22.50;83.48;100706.09;1918275;75;21497;-64
2021/06/26 07:39:01;;;;;;;24.12;9.08;;;;;;;22.47;83.14;100684.92;1918285;75;21012;-64
2021/06/26 07:41:29;;;;;;;18.37;8.40;;;;;;;22.48;82.69;100677.22;1918187;75;21063;-64
2021/06/26 07:43:58;;;;;;;15.25;7.03;;;;;;;22.49;82.46;100666.85;1918231;75;21036;-64
2021/06/26 07:46:27;;;;;;;11.30;4.40;;;;;;;22.46;80.87;100660.41;1918348;75;21101;-64
2021/06/26 07:48:56;;;;;;;7.78;3.87;;;;;;;22.43;79.87;100657.52;1918249;75;21060;-64
2021/06/26 07:51:24;;;;;;;9.43;4.87;;;;;;;22.39;78.79;100657.45;1918274;75;21087;-64
2021/06/26 07:53:53;;;;;;;8.28;4.55;;;;;;;22.34;77.94;100655.67;1918155;73;21126;-64
2021/06/26 07:56:22;;;;;;;5.08;3.40;;;;;;;22.27;77.56;100655.37;1918199;75;21172;-64
2021/06/26 07:58:51;;;;;;;7.47;3.98;;;;;;;22.21;77.38;100659.08;1918268;75;21117;-64
2021/06/26 08:01:20;;;;;;;8.58;4.65;;;;;;;22.12;77.24;100662.08;1918284;75;21474;-64
2021/06/26 08:03:48;;;;;;;9.68;4.75;;;;;;;22.05;77.29;100660.92;1918368;74;21008;-64
2021/06/26 08:06:17;;;;;;;17.27;9.18;;;;;;;21.97;77.73;100655.75;1918145;73;21056;-64
2021/06/26 08:08:46;;;;;;;16.12;8.05;;;;;;;21.94;78.56;100650.65;1921794;74;21106;-64
2021/06/26 08:11:15;;;;;;;15.75;8.78;;;;;;;21.91;79.55;100645.58;1925380;74;21094;-64
2021/06/26 08:13:44;;;;;;;17.12;9.38;;;;;;;21.86;80.28;100646.97;1925269;74;21028;-64
2021/06/26 08:16:12;;;;;;;15.40;7.78;;;;;;;21.81;80.82;100654.06;1925499;74;21141;-64
2021/06/26 08:18:41;;;;;;;19.70;8.55;;;;;;;21.78;81.18;100669.06;1925045;74;21035;-64
2021/06/26 08:21:10;;;;;;;17.57;9.10;;;;;;;21.71;81.65;100674.63;1924641;74;21056;-64
2021/06/26 08:23:39;;;;;;;15.55;6.22;;;;;;;21.64;81.93;100664.92;1924624;74;21051;-65
2021/06/26 08:26:08;;;;;;;13.62;7.67;;;;;;;21.56;82.22;100678.12;1924748;74;21031;-65
2021/06/26 08:28:37;;;;;;;15.40;8.23;;;;;;;21.44;82.33;100682.68;1924569;74;21028;-64
2021/06/26 08:31:05;;;;;;;13.48;7.05;;;;;;;21.36;82.58;100690.54;1924595;74;21099;-65
2021/06/26 08:33:34;;;;;;;14.47;6.97;;;;;;;21.31;82.69;100682.05;1924587;74;21565;-65
2021/06/26 08:36:03;;;;;;;13.38;6.05;;;;;;;21.30;82.58;100689.70;1924640;74;21474;-65
2021/06/26 08:38:32;;;;;;;13.03;5.17;;;;;;;21.26;82.44;100685.09;1924823;74;21458;-65
2021/06/26 08:41:02;;;;;;;12.63;5.40;;;;;;;21.20;82.40;100681.61;1924666;74;21414;-65
2021/06/26 08:43:30;;;;;;;13.10;4.28;;;;;;;21.15;82.36;100673.11;1924617;74;21564;-65
2021/06/26 08:46:01;;;;;;;7.25;4.12;;;;;;;21.09;82.38;100680.34;1924715;74;21544;-65
2021/06/26 08:48:29;;;;;;;8.35;4.37;;;;;;;20.96;82.55;100680.52;1924638;74;21028;-65
2021/06/26 08:50:58;;;;;;;15.23;5.75;;;;;;;20.88;82.79;100674.94;1924621;74;21429;-65
2021/06/26 08:53:27;;;;;;;11.55;4.90;;;;;;;20.80;84.20;100683.61;1924643;74;20996;-67
2021/06/26 08:55:56;;;;;;;16.25;5.85;;;;;;;20.70;84.90;100668.82;1924645;74;21141;-66
2021/06/26 08:58:25;;;;;;;7.90;5.40;;;;;;;20.65;85.27;100661.66;1924545;74;21051;-66
2021/06/26 09:00:53;;;;;;;14.78;5.62;;;;;;;20.61;85.80;100658.88;1924593;74;21043;-66
2021/06/26 09:03:24;;;;;;;14.05;6.78;;;;;;;20.60;85.60;100657.13;1924621;74;21043;-66
2021/06/26 09:05:52;;;;;;;11.15;7.12;;;;;;;20.60;85.74;100658.47;1924720;74;21097;-65
2021/06/26 09:08:23;;;;;;;12.13;6.10;;;;;;;20.66;85.69;100673.20;1923462;74;21028;-65
2021/06/26 09:10:52;;;;;;;15.15;7.42;;;;;;;20.71;85.89;100682.57;1905181;75;21040;-65
2021/06/26 09:13:24;;;;;;;14.58;7.33;;;;;;;20.76;85.73;100685.69;1905316;75;21033;-65
2021/06/26 09:16:11;;;;;;;15.83;6.78;;;;;;;20.86;85.67;100692.95;1905220;75;21483;-64
2021/06/26 09:18:42;;;;;;;14.80;6.53;;;;;;;20.92;85.56;100694.64;1905297;75;21000;-64
2021/06/26 09:21:27;;;;;;;10.50;6.03;;;;;;;20.97;85.41;100684.87;1905074;75;21139;-65
2021/06/26 09:24:13;;;;;;;14.18;7.08;;;;;;;21.00;85.31;100689.98;1905261;75;21029;-65
2021/06/26 09:27:00;;;;;;;16.30;6.72;;;;;;;21.03;85.32;100684.37;1905201;75;21029;-65
2021/06/26 09:29:29;;;;;;;12.13;7.22;;;;;;;21.04;85.38;100684.72;1905061;75;21040;-66
2021/06/26 09:32:03;;;;;;;15.32;7.28;;;;;;;21.04;85.45;100691.41;1905179;74;21464;-66
2021/06/26 09:34:41;;;;;;;16.55;6.60;;;;;;;21.05;85.69;100695.80;1905243;75;21098;-66
2021/06/26 09:37:27;;;;;;;12.37;6.90;;;;;;;21.05;85.70;100689.11;1905247;75;21005;-66
2021/06/26 09:39:58;;;;;;;14.68;6.97;;;;;;;21.08;85.58;100698.23;1904188;74;21060;-66
2021/06/26 09:42:36;;;;;;;29.92;20.25;;;;;;;21.11;85.57;100701.97;1905359;75;21076;-66
2021/06/26 09:45:08;;;;;;;31.23;23.12;;;;;;;21.14;85.83;100693.69;1904927;75;21057;-65
2021/06/26 09:47:42;;;;;;;25.17;17.82;;;;;;;21.19;86.25;100690.14;1905345;75;21051;-66
2021/06/26 09:50:22;;;;;;;19.27;9.60;;;;;;;21.31;86.38;100694.09;1904050;74;21041;-65
2021/06/26 09:52:53;;;;;;;12.05;7.03;;;;;;;21.43;86.17;100705.08;1905205;75;21118;-65
2021/06/26 09:55:30;;;;;;;13.65;6.00;;;;;;;21.51;85.73;100701.80;1905322;75;21024;-66
2021/06/26 09:58:04;;;;;;;10.45;6.95;;;;;;;21.58;85.36;100704.31;1905328;75;21028;-65
2021/06/26 10:00:34;;;;;;;15.23;8.45;;;;;;;21.64;85.05;100698.91;1905470;75;21536;-65
2021/06/26 10:03:03;;;;;;;13.65;8.20;;;;;;;21.70;85.02;100701.05;1905082;75;21064;-66
2021/06/26 10:05:32;;;;;;;13.98;6.95;;;;;;;21.74;84.87;100692.59;1905223;75;21474;-65
2021/06/26 10:08:03;;;;;;;9.75;6.35;;;;;;;21.79;84.86;100695.73;1905205;75;21029;-65
2021/06/26 10:10:32;;;;;;;12.20;7.28;;;;;;;21.83;84.47;100697.66;1917750;74;21513;-65
2021/06/26 10:13:01;;;;;;;10.20;7.00;;;;;;;21.85;84.13;100701.55;1924668;74;21031;-65
2021/06/26 10:15:33;;;;;;;11.65;5.95;;;;;;;21.83;83.88;100706.20;1924582;74;21004;-65
2021/06/26 10:18:02;;;;;;;12.03;5.62;;;;;;;21.82;83.14;100704.48;1924583;74;21024;-65
2021/06/26 10:20:31;;;;;;;12.30;6.03;;;;;;;21.90;83.14;100694.80;1924591;74;21027;-64
2021/06/26 10:23:01;;;;;;;9.90;5.80;;;;;;;21.97;82.54;100700.48;1924605;74;21069;-64
2021/06/26 10:25:35;;;;;;;15.13;5.92;;;;;;;22.07;82.25;100701.35;1924562;74;21056;-64
2021/06/26 10:28:13;;;;;;;8.00;4.65;;;;;;;22.15;81.89;100708.71;1924600;74;21111;-64
2021/06/26 10:30:43;;;;;;;11.28;4.95;;;;;;;22.19;81.23;100712.84;1924547;74;21000;-64
2021/06/26 10:33:13;;;;;;;11.57;5.95;;;;;;;22.23;81.31;100704.03;1924597;74;21081;-65
2021/06/26 10:35:53;;;;;;;6.60;3.87;;;;;;;22.23;81.52;100698.67;1924681;74;21031;-65
2021/06/26 10:38:22;;;;;;;10.93;6.08;;;;;;;22.24;81.88;100694.48;1924422;74;21030;-65
2021/06/26 10:40:58;;;;;;;13.15;6.50;;;;;;;22.23;82.03;100691.47;1924599;74;21512;-64
2021/06/26 10:43:31;;;;;;;11.33;7.10;;;;;;;22.22;82.14;100693.78;1924699;74;21547;-64
2021/06/26 10:46:07;;;;;;;;;;;;;;;22.17;81.71;100696.05;1927441;74;21101;-64
2021/06/26 10:48:37;;;;;;;6.12;4.60;;;;;;;22.15;81.73;100703.35;1924508;74;20366;-65
2021/06/26 10:51:06;;;;;;;9.08;5.35;;;;;;;22.10;81.96;100715.00;1924527;74;21027;-64
2021/06/26 10:53:40;;;;;;;9.10;6.12;;;;;;;22.05;82.17;100713.20;1924576;74;21032;-64
2021/06/26 10:56:14;;;;;;;8.60;3.87;;;;;;;22.02;82.21;100724.19;1924550;74;21518;-64
2021/06/26 10:58:45;;;;;;;8.58;3.72;;;;;;;21.96;82.09;100722.90;1924525;74;21035;-64
2021/06/26 11:01:21;;;;;;;9.45;4.28;;;;;;;21.89;81.64;100734.67;1924497;74;21027;-65
2021/06/26 11:03:55;;;;;;;5.45;3.35;;;;;;;21.84;81.72;100738.70;1924591;74;21040;-64
2021/06/26 11:06:30;;;;;;;5.65;3.52;;;;;;;21.83;81.80;100737.86;1914005;74;21125;-64
2021/06/26 11:09:01;;;;;;;7.33;4.83;;;;;;;21.85;81.83;100741.25;1924545;74;21074;-64
2021/06/26 11:11:42;;;;;;;7.17;3.60;;;;;;;21.88;81.84;100742.84;1924154;74;21036;-65
2021/06/26 11:14:25;;;;;;;7.10;4.05;;;;;;;21.94;81.87;100755.70;1924561;74;21056;-64
2021/06/26 11:16:56;;;;;;;8.85;4.15;;;;;;;21.96;81.91;100755.06;1924794;74;21051;-64
2021/06/26 11:19:30;;;;;;;9.30;5.08;;;;;;;21.97;81.95;100746.89;1924563;74;21028;-64
2021/06/26 11:22:00;;;;;;;7.83;4.53;;;;;;;21.98;81.96;100747.27;1923700;74;21121;-64
2021/06/26 11:24:40;;;;;;;8.93;5.10;;;;;;;22.01;82.01;100746.14;1924593;74;21071;-64
2021/06/26 11:27:13;;;;;;;12.47;5.17;;;;;;;22.04;82.09;100745.01;1923688;74;21121;-64
2021/06/26 11:29:45;;;;;;;10.85;4.25;;;;;;;22.08;82.26;100741.10;1924689;74;21032;-64
2021/06/26 11:32:25;;;;;;;11.22;5.37;;;;;;;22.07;82.25;100741.57;1924648;74;21012;-64
2021/06/26 11:35:02;;;;;;;8.00;4.50;;;;;;;22.11;82.20;100740.81;1924519;74;20999;-64
2021/06/26 11:37:42;;;;;;;7.97;3.85;;;;;;;22.13;82.18;100740.18;1924598;74;21101;-64
2021/06/26 11:40:19;;;;;;;5.55;4.28;;;;;;;22.13;81.96;100737.50;1923772;74;21012;-64
2021/06/26 11:42:54;;;;;;;11.55;4.58;;;;;;;22.09;82.06;100736.08;1924472;74;21501;-64
2021/06/26 11:45:29;;;;;;;12.15;5.45;;;;;;;22.04;82.01;100735.63;1924620;74;21101;-64
2021/06/26 11:48:09;;;;;;;8.48;5.12;;;;;;;22.04;82.71;100727.58;1923127;74;21469;-64
2021/06/26 11:50:43;;;;;;;12.35;5.92;;;;;;;22.01;83.13;100722.02;1924485;74;21071;-64
2021/06/26 11:53:14;;;;;;;6.55;4.60;;;;;;;22.03;83.40;100716.52;1919218;74;21494;-66
2021/06/26 11:56:05;;;;;;;8.90;5.28;;;;;;;22.03;83.28;100714.68;1924650;74;21170;-65
2021/06/26 11:58:45;;;;;;;8.80;4.37;;;;;;;22.04;83.16;100707.47;1923514;74;21466;-64
2021/06/26 12:01:25;;;;;;;5.70;4.00;;;;;;;22.00;83.20;100692.65;1924904;74;21024;-64
2021/06/26 12:03:55;;;;;;;7.87;4.72;;;;;;;21.97;83.02;100690.59;1924600;74;21118;-65
2021/06/26 12:06:24;;;;;;;8.65;5.10;;;;;;;21.95;83.02;100688.55;1924637;74;21563;-64
2021/06/26 12:08:57;;;;;;;9.93;5.33;;;;;;;21.92;83.30;100683.95;1924747;74;21007;-64
2021/06/26 12:11:33;;;;;;;12.33;5.70;;;;;;;21.91;83.41;100669.70;1916160;74;21064;-64
2021/06/26 12:14:03;;;;;;;11.38;6.70;;;;;;;21.96;83.69;100670.13;1905217;74;21056;-65
2021/06/26 12:16:37;;;;;;;9.50;5.95;;;;;;;22.02;84.05;100667.89;1905324;75;21032;-64